sensor_id;sensor_type;location;lat;lon;timestamp;pressure;altitude;pressure_sealevel;temperature;humidity
41334;BME280;27078;46.428;6.256;2023-05-21T00:01:03;96031.75;;;11.50;100.00
41334;BME280;27078;46.428;6.256;2023-05-21T00:03:30;96025.47;;;11.51;100.00
41334;BME280;27078;46.428;6.256;2023-05-21T00:05:55;96032.56;;;11.51;100.00
41334;BME280;27078;46.428;6.256;2023-05-21T00:08:21;96026.16;;;11.53;100.00
41334;BME280;27078;46.428;6.256;2023-05-21T00:10:47;96034.75;;;11.55;100.00
41334;BME280;27078;46.428;6.256;2023-05-21T00:13:12;96025.72;;;11.58;100.00
41334;BME280;27078;46.428;6.256;2023-05-21T00:15:37;96023.50;;;11.53;100.00
41334;BME280;27078;46.428;6.256;2023-05-21T00:18:04;96017.72;;;11.50;100.00
41334;BME280;27078;46.428;6.256;2023-05-21T00:20:29;96016.03;;;11.49;100.00
41334;BME280;27078;46.428;6.256;2023-05-21T00:22:59;96024.50;;;11.52;100.00
41334;BME280;27078;46.428;6.256;2023-05-21T00:25:27;96026.16;;;11.53;100.00
41334;BME280;27078;46.428;6.256;2023-05-21T00:27:53;96020.31;;;11.68;100.00
41334;BME280;27078;46.428;6.256;2023-05-21T00:30:18;96016.16;;;11.65;100.00
41334;BME280;27078;46.428;6.256;2023-05-21T00:32:44;96007.69;;;11.61;100.00
41334;BME280;27078;46.428;6.256;2023-05-21T00:35:09;96013.78;;;11.54;100.00
41334;BME280;27078;46.428;6.256;2023-05-21T00:37:41;96009.31;;;11.54;100.00
41334;BME280;27078;46.428;6.256;2023-05-21T00:40:07;96008.84;;;11.59;100.00
41334;BME280;27078;46.428;6.256;2023-05-21T00:42:33;96012.25;;;11.51;100.00
41334;BME280;27078;46.428;6.256;2023-05-21T00:45:04;96000.50;;;11.72;100.00
41334;BME280;27078;46.428;6.256;2023-05-21T00:47:29;96005.44;;;11.67;100.00
41334;BME280;27078;46.428;6.256;2023-05-21T00:49:55;95994.47;;;11.61;100.00
41334;BME280;27078;46.428;6.256;2023-05-21T00:52:20;96001.03;;;11.75;100.00
41334;BME280;27078;46.428;6.256;2023-05-21T00:54:48;95994.88;;;11.67;100.00
41334;BME280;27078;46.428;6.256;2023-05-21T00:57:16;95994.19;;;11.65;100.00
41334;BME280;27078;46.428;6.256;2023-05-21T00:59:45;95995.34;;;11.62;100.00
41334;BME280;27078;46.428;6.256;2023-05-21T01:02:10;95991.34;;;11.58;100.00
41334;BME280;27078;46.428;6.256;2023-05-21T01:04:38;95988.97;;;11.55;100.00
41334;BME280;27078;46.428;6.256;2023-05-21T01:07:03;96003.63;;;11.49;100.00
41334;BME280;27078;46.428;6.256;2023-05-21T01:09:30;96000.03;;;11.50;100.00
41334;BME280;27078;46.428;6.256;2023-05-21T01:11:56;95996.22;;;11.53;100.00
41334;BME280;27078;46.428;6.256;2023-05-21T01:14:22;96004.56;;;11.58;100.00
41334;BME280;27078;46.428;6.256;2023-05-21T01:16:49;95998.59;;;11.56;100.00
41334;BME280;27078;46.428;6.256;2023-05-21T01:19:18;96000.56;;;11.54;100.00
41334;BME280;27078;46.428;6.256;2023-05-21T01:21:45;96004.56;;;11.58;100.00
41334;BME280;27078;46.428;6.256;2023-05-21T01:24:13;96019.50;;;11.49;100.00
41334;BME280;27078;46.428;6.256;2023-05-21T01:26:38;96017.31;;;11.45;100.00
41334;BME280;27078;46.428;6.256;2023-05-21T01:29:07;96013.25;;;11.50;100.00
41334;BME280;27078;46.428;6.256;2023-05-21T01:31:46;96010.53;;;11.42;100.00
41334;BME280;27078;46.428;6.256;2023-05-21T01:34:13;96014.75;;;11.35;100.00
41334;BME280;27078;46.428;6.256;2023-05-21T01:36:44;96008.19;;;11.39;100.00
41334;BME280;27078;46.428;6.256;2023-05-21T01:39:16;96005.38;;;11.40;100.00
41334;BME280;27078;46.428;6.256;2023-05-21T01:41:44;96006.22;;;11.41;100.00
41334;BME280;27078;46.428;6.256;2023-05-21T01:44:12;96004.16;;;11.53;100.00
41334;BME280;27078;46.428;6.256;2023-05-21T01:46:38;96007.41;;;11.47;100.00
41334;BME280;27078;46.428;6.256;2023-05-21T01:49:05;96000.94;;;11.41;100.00
41334;BME280;27078;46.428;6.256;2023-05-21T01:51:32;96001.56;;;11.35;100.00
41334;BME280;27078;46.428;6.256;2023-05-21T01:53:57;96002.50;;;11.34;100.00
41334;BME280;27078;46.428;6.256;2023-05-21T01:56:23;95997.44;;;11.40;100.00
41334;BME280;27078;46.428;6.256;2023-05-21T01:58:50;95988.69;;;11.40;100.00
41334;BME280;27078;46.428;6.256;2023-05-21T02:01:15;95996.25;;;11.35;100.00
41334;BME280;27078;46.428;6.256;2023-05-21T02:03:41;95990.91;;;11.27;100.00
41334;BME280;27078;46.428;6.256;2023-05-21T02:06:06;96000.56;;;11.18;100.00
41334;BME280;27078;46.428;6.256;2023-05-21T02:08:31;95995.06;;;11.11;100.00
41334;BME280;27078;46.428;6.256;2023-05-21T02:10:57;95986.59;;;11.08;100.00
41334;BME280;27078;46.428;6.256;2023-05-21T02:13:23;95992.63;;;11.00;100.00
41334;BME280;27078;46.428;6.256;2023-05-21T02:15:49;95996.69;;;10.94;100.00
41334;BME280;27078;46.428;6.256;2023-05-21T02:18:18;95997.00;;;10.91;100.00
41334;BME280;27078;46.428;6.256;2023-05-21T02:20:45;95999.41;;;10.85;100.00
41334;BME280;27078;46.428;6.256;2023-05-21T02:23:11;95994.44;;;10.82;100.00
41334;BME280;27078;46.428;6.256;2023-05-21T02:25:36;96000.81;;;10.79;100.00
41334;BME280;27078;46.428;6.256;2023-05-21T02:28:01;95997.66;;;10.75;100.00
41334;BME280;27078;46.428;6.256;2023-05-21T02:30:27;95999.31;;;10.76;100.00
41334;BME280;27078;46.428;6.256;2023-05-21T02:32:52;96004.59;;;10.76;100.00
41334;BME280;27078;46.428;6.256;2023-05-21T02:35:18;95999.31;;;10.76;100.00
41334;BME280;27078;46.428;6.256;2023-05-21T02:37:43;96005.00;;;10.82;100.00
41334;BME280;27078;46.428;6.256;2023-05-21T02:40:09;96002.03;;;10.85;100.00
41334;BME280;27078;46.428;6.256;2023-05-21T02:42:35;95995.53;;;10.79;100.00
41334;BME280;27078;46.428;6.256;2023-05-21T02:45:01;95989.28;;;10.80;100.00
41334;BME280;27078;46.428;6.256;2023-05-21T02:47:27;95995.34;;;10.90;100.00
41334;BME280;27078;46.428;6.256;2023-05-21T02:49:52;95988.69;;;10.86;100.00
41334;BME280;27078;46.428;6.256;2023-05-21T02:52:19;95998.72;;;10.83;100.00
41334;BME280;27078;46.428;6.256;2023-05-21T02:54:46;96007.22;;;10.76;100.00
41334;BME280;27078;46.428;6.256;2023-05-21T02:57:12;95990.59;;;10.66;100.00
41334;BME280;27078;46.428;6.256;2023-05-21T02:59:37;95990.38;;;10.59;100.00
41334;BME280;27078;46.428;6.256;2023-05-21T03:02:03;95993.44;;;10.55;100.00
41334;BME280;27078;46.428;6.256;2023-05-21T03:04:28;95991.78;;;10.54;100.00
41334;BME280;27078;46.428;6.256;2023-05-21T03:06:54;96000.00;;;10.51;100.00
41334;BME280;27078;46.428;6.256;2023-05-21T03:09:21;95994.63;;;10.43;100.00
41334;BME280;27078;46.428;6.256;2023-05-21T03:11:46;95997.94;;;10.45;100.00
41334;BME280;27078;46.428;6.256;2023-05-21T03:14:12;95987.09;;;10.48;100.00
41334;BME280;27078;46.428;6.256;2023-05-21T03:16:37;95983.34;;;10.50;100.00
41334;BME280;27078;46.428;6.256;2023-05-21T03:19:06;95984.03;;;10.52;100.00
41334;BME280;27078;46.428;6.256;2023-05-21T03:21:31;95982.88;;;10.55;100.00
41334;BME280;27078;46.428;6.256;2023-05-21T03:23:57;95986.22;;;10.57;100.00
41334;BME280;27078;46.428;6.256;2023-05-21T03:26:26;95996.78;;;10.57;100.00
41334;BME280;27078;46.428;6.256;2023-05-21T03:28:52;95994.41;;;10.54;100.00
41334;BME280;27078;46.428;6.256;2023-05-21T03:31:18;95991.00;;;10.44;100.00
41334;BME280;27078;46.428;6.256;2023-05-21T03:33:43;95984.06;;;10.43;100.00
41334;BME280;27078;46.428;6.256;2023-05-21T03:36:09;95989.91;;;10.36;100.00
41334;BME280;27078;46.428;6.256;2023-05-21T03:38:34;95983.56;;;10.29;100.00
41334;BME280;27078;46.428;6.256;2023-05-21T03:40:59;95984.94;;;10.24;100.00
41334;BME280;27078;46.428;6.256;2023-05-21T03:43:25;95986.66;;;10.15;100.00
41334;BME280;27078;46.428;6.256;2023-05-21T03:45:50;95990.28;;;10.14;100.00
41334;BME280;27078;46.428;6.256;2023-05-21T03:48:15;95986.25;;;10.10;100.00
41334;BME280;27078;46.428;6.256;2023-05-21T03:50:42;95990.00;;;10.07;100.00
41334;BME280;27078;46.428;6.256;2023-05-21T03:53:07;95990.44;;;10.03;100.00
41334;BME280;27078;46.428;6.256;2023-05-21T03:55:34;96001.13;;;10.01;100.00
41334;BME280;27078;46.428;6.256;2023-05-21T03:58:00;95986.41;;;9.98;100.00
41334;BME280;27078;46.428;6.256;2023-05-21T04:00:25;95991.16;;;9.95;100.00
41334;BME280;27078;46.428;6.256;2023-05-21T04:02:50;95996.69;;;10.02;100.00
41334;BME280;27078;46.428;6.256;2023-05-21T04:05:16;95997.50;;;10.12;100.00
41334;BME280;27078;46.428;6.256;2023-05-21T04:07:41;96000.22;;;10.20;100.00
41334;BME280;27078;46.428;6.256;2023-05-21T04:10:07;96005.91;;;10.25;100.00
41334;BME280;27078;46.428;6.256;2023-05-21T04:12:32;96011.06;;;10.27;100.00
41334;BME280;27078;46.428;6.256;2023-05-21T04:14:58;96017.44;;;10.24;100.00
41334;BME280;27078;46.428;6.256;2023-05-21T04:17:23;96025.53;;;10.23;100.00
41334;BME280;27078;46.428;6.256;2023-05-21T04:19:50;96028.28;;;10.21;100.00
41334;BME280;27078;46.428;6.256;2023-05-21T04:22:16;96020.25;;;10.23;100.00
41334;BME280;27078;46.428;6.256;2023-05-21T04:24:41;96031.31;;;10.36;100.00
41334;BME280;27078;46.428;6.256;2023-05-21T04:27:07;96043.25;;;10.50;100.00
41334;BME280;27078;46.428;6.256;2023-05-21T04:29:34;96036.06;;;10.60;100.00
41334;BME280;27078;46.428;6.256;2023-05-21T04:31:59;96035.22;;;10.69;100.00
41334;BME280;27078;46.428;6.256;2023-05-21T04:34:24;96045.03;;;10.77;100.00
41334;BME280;27078;46.428;6.256;2023-05-21T04:36:50;96043.63;;;10.83;100.00
41334;BME280;27078;46.428;6.256;2023-05-21T04:39:16;96046.34;;;10.91;100.00
41334;BME280;27078;46.428;6.256;2023-05-21T04:41:41;96046.72;;;10.96;100.00
41334;BME280;27078;46.428;6.256;2023-05-21T04:44:07;96048.50;;;11.05;100.00
41334;BME280;27078;46.428;6.256;2023-05-21T04:46:32;96053.03;;;11.13;100.00
41334;BME280;27078;46.428;6.256;2023-05-21T04:48:59;96048.66;;;11.21;100.00
41334;BME280;27078;46.428;6.256;2023-05-21T04:51:27;96049.19;;;11.25;100.00
41334;BME280;27078;46.428;6.256;2023-05-21T04:53:52;96050.78;;;11.36;100.00
41334;BME280;27078;46.428;6.256;2023-05-21T04:56:18;96046.84;;;11.40;100.00
41334;BME280;27078;46.428;6.256;2023-05-21T04:58:47;96049.59;;;11.48;100.00
41334;BME280;27078;46.428;6.256;2023-05-21T05:01:16;96047.16;;;11.55;100.00
41334;BME280;27078;46.428;6.256;2023-05-21T05:03:44;96045.41;;;11.64;100.00
41334;BME280;27078;46.428;6.256;2023-05-21T05:06:09;96049.94;;;11.71;100.00
41334;BME280;27078;46.428;6.256;2023-05-21T05:08:35;96049.88;;;11.81;100.00
41334;BME280;27078;46.428;6.256;2023-05-21T05:11:00;96043.53;;;11.92;100.00
41334;BME280;27078;46.428;6.256;2023-05-21T05:13:26;96048.41;;;12.05;100.00
41334;BME280;27078;46.428;6.256;2023-05-21T05:15:51;96051.47;;;12.18;100.00
41334;BME280;27078;46.428;6.256;2023-05-21T05:18:18;96049.72;;;12.27;100.00
41334;BME280;27078;46.428;6.256;2023-05-21T05:20:43;96046.97;;;12.36;100.00
41334;BME280;27078;46.428;6.256;2023-05-21T05:23:09;96051.97;;;12.48;100.00
41334;BME280;27078;46.428;6.256;2023-05-21T05:25:34;96050.34;;;12.55;100.00
41334;BME280;27078;46.428;6.256;2023-05-21T05:27:59;96055.75;;;12.71;100.00
41334;BME280;27078;46.428;6.256;2023-05-21T05:30:25;96050.00;;;12.84;100.00
41334;BME280;27078;46.428;6.256;2023-05-21T05:32:50;96051.88;;;13.00;100.00
41334;BME280;27078;46.428;6.256;2023-05-21T05:35:16;96063.53;;;13.15;100.00
41334;BME280;27078;46.428;6.256;2023-05-21T05:37:41;96061.25;;;13.29;100.00
41334;BME280;27078;46.428;6.256;2023-05-21T05:40:07;96072.41;;;13.40;100.00
41334;BME280;27078;46.428;6.256;2023-05-21T05:42:32;96070.25;;;13.52;100.00
41334;BME280;27078;46.428;6.256;2023-05-21T05:44:57;96067.97;;;13.66;100.00
41334;BME280;27078;46.428;6.256;2023-05-21T05:47:23;96069.94;;;13.80;100.00
41334;BME280;27078;46.428;6.256;2023-05-21T05:49:48;96071.47;;;13.91;100.00
41334;BME280;27078;46.428;6.256;2023-05-21T05:52:13;96079.59;;;13.97;100.00
41334;BME280;27078;46.428;6.256;2023-05-21T05:54:39;96069.28;;;14.02;100.00
41334;BME280;27078;46.428;6.256;2023-05-21T05:57:04;96072.28;;;14.08;100.00
41334;BME280;27078;46.428;6.256;2023-05-21T05:59:30;96070.31;;;14.10;100.00
41334;BME280;27078;46.428;6.256;2023-05-21T06:01:58;96073.94;;;14.17;100.00
41334;BME280;27078;46.428;6.256;2023-05-21T06:04:23;96067.97;;;14.15;100.00
41334;BME280;27078;46.428;6.256;2023-05-21T06:06:49;96075.09;;;14.06;100.00
41334;BME280;27078;46.428;6.256;2023-05-21T06:09:15;96074.44;;;13.96;100.00
41334;BME280;27078;46.428;6.256;2023-05-21T06:11:40;96072.09;;;14.01;100.00
41334;BME280;27078;46.428;6.256;2023-05-21T06:14:05;96073.94;;;14.09;100.00
41334;BME280;27078;46.428;6.256;2023-05-21T06:16:31;96068.28;;;14.12;100.00
41334;BME280;27078;46.428;6.256;2023-05-21T06:18:56;96073.44;;;14.13;100.00
41334;BME280;27078;46.428;6.256;2023-05-21T06:21:21;96074.59;;;14.11;100.00
41334;BME280;27078;46.428;6.256;2023-05-21T06:23:47;96084.88;;;14.14;100.00
41334;BME280;27078;46.428;6.256;2023-05-21T06:26:12;96072.59;;;14.21;100.00
41334;BME280;27078;46.428;6.256;2023-05-21T06:28:37;96075.75;;;14.24;100.00
41334;BME280;27078;46.428;6.256;2023-05-21T06:31:03;96076.56;;;14.33;100.00
41334;BME280;27078;46.428;6.256;2023-05-21T06:33:28;96066.25;;;14.38;100.00
41334;BME280;27078;46.428;6.256;2023-05-21T06:35:54;96063.44;;;14.40;100.00
41334;BME280;27078;46.428;6.256;2023-05-21T06:38:19;96065.59;;;14.44;100.00
41334;BME280;27078;46.428;6.256;2023-05-21T06:40:45;96070.38;;;14.49;100.00
41334;BME280;27078;46.428;6.256;2023-05-21T06:43:12;96062.59;;;14.56;100.00
41334;BME280;27078;46.428;6.256;2023-05-21T06:45:38;96066.91;;;14.65;100.00
41334;BME280;27078;46.428;6.256;2023-05-21T06:48:04;96069.22;;;14.68;100.00
41334;BME280;27078;46.428;6.256;2023-05-21T06:50:29;96071.84;;;14.76;100.00
41334;BME280;27078;46.428;6.256;2023-05-21T06:52:54;96067.50;;;14.83;100.00
41334;BME280;27078;46.428;6.256;2023-05-21T06:55:20;96064.50;;;14.86;100.00
41334;BME280;27078;46.428;6.256;2023-05-21T06:57:45;96070.81;;;14.85;100.00
41334;BME280;27078;46.428;6.256;2023-05-21T07:00:11;96071.31;;;14.81;100.00
41334;BME280;27078;46.428;6.256;2023-05-21T07:02:36;96070.16;;;14.83;100.00
41334;BME280;27078;46.428;6.256;2023-05-21T07:05:02;96074.47;;;14.84;100.00
41334;BME280;27078;46.428;6.256;2023-05-21T07:07:27;96079.78;;;14.84;100.00
41334;BME280;27078;46.428;6.256;2023-05-21T07:09:52;96069.81;;;14.86;100.00
41334;BME280;27078;46.428;6.256;2023-05-21T07:12:18;96073.78;;;14.91;100.00
41334;BME280;27078;46.428;6.256;2023-05-21T07:14:43;96068.13;;;14.94;100.00
41334;BME280;27078;46.428;6.256;2023-05-21T07:17:09;96065.44;;;15.02;100.00
41334;BME280;27078;46.428;6.256;2023-05-21T07:19:34;96064.75;;;15.08;100.00
41334;BME280;27078;46.428;6.256;2023-05-21T07:21:59;96074.94;;;15.27;100.00
41334;BME280;27078;46.428;6.256;2023-05-21T07:24:25;96074.03;;;15.43;100.00
41334;BME280;27078;46.428;6.256;2023-05-21T07:26:52;96076.28;;;15.55;100.00
41334;BME280;27078;46.428;6.256;2023-05-21T07:29:17;96074.72;;;15.68;100.00
41334;BME280;27078;46.428;6.256;2023-05-21T07:31:42;96064.97;;;15.84;100.00
41334;BME280;27078;46.428;6.256;2023-05-21T07:34:07;96066.22;;;15.96;100.00
41334;BME280;27078;46.428;6.256;2023-05-21T07:36:33;96069.28;;;16.23;100.00
41334;BME280;27078;46.428;6.256;2023-05-21T07:38:58;96062.97;;;16.24;100.00
41334;BME280;27078;46.428;6.256;2023-05-21T07:41:24;96056.63;;;16.25;100.00
41334;BME280;27078;46.428;6.256;2023-05-21T07:43:49;96050.75;;;16.44;100.00
41334;BME280;27078;46.428;6.256;2023-05-21T07:46:15;96052.06;;;16.48;100.00
41334;BME280;27078;46.428;6.256;2023-05-21T07:48:40;96051.78;;;16.43;100.00
41334;BME280;27078;46.428;6.256;2023-05-21T07:51:05;96048.88;;;16.53;100.00
41334;BME280;27078;46.428;6.256;2023-05-21T07:53:31;96053.09;;;16.77;100.00
41334;BME280;27078;46.428;6.256;2023-05-21T07:55:58;96043.72;;;16.96;100.00
41334;BME280;27078;46.428;6.256;2023-05-21T07:58:23;96044.06;;;17.08;100.00
41334;BME280;27078;46.428;6.256;2023-05-21T08:00:49;96047.28;;;17.18;100.00
41334;BME280;27078;46.428;6.256;2023-05-21T08:03:15;96052.97;;;17.30;100.00
41334;BME280;27078;46.428;6.256;2023-05-21T08:05:45;96056.53;;;17.37;100.00
41334;BME280;27078;46.428;6.256;2023-05-21T08:08:18;96055.31;;;17.40;100.00
41334;BME280;27078;46.428;6.256;2023-05-21T08:10:44;96052.09;;;17.44;100.00
41334;BME280;27078;46.428;6.256;2023-05-21T08:13:11;96057.50;;;17.51;100.00
41334;BME280;27078;46.428;6.256;2023-05-21T08:15:36;96060.00;;;17.53;100.00
41334;BME280;27078;46.428;6.256;2023-05-21T08:18:02;96049.75;;;17.56;100.00
41334;BME280;27078;46.428;6.256;2023-05-21T08:20:28;96057.50;;;17.51;100.00
41334;BME280;27078;46.428;6.256;2023-05-21T08:22:55;96061.63;;;17.54;100.00
41334;BME280;27078;46.428;6.256;2023-05-21T08:25:20;96055.91;;;17.57;100.00
41334;BME280;27078;46.428;6.256;2023-05-21T08:27:46;96055.84;;;17.50;100.00
41334;BME280;27078;46.428;6.256;2023-05-21T08:30:11;96069.34;;;17.63;100.00
41334;BME280;27078;46.428;6.256;2023-05-21T08:32:37;96067.22;;;17.59;100.00
41334;BME280;27078;46.428;6.256;2023-05-21T08:35:02;96066.22;;;17.60;100.00
41334;BME280;27078;46.428;6.256;2023-05-21T08:37:28;96077.38;;;17.63;100.00
41334;BME280;27078;46.428;6.256;2023-05-21T08:39:53;96075.63;;;17.56;100.00
41334;BME280;27078;46.428;6.256;2023-05-21T08:42:39;96074.47;;;17.65;100.00
41334;BME280;27078;46.428;6.256;2023-05-21T08:45:07;96072.09;;;17.70;100.00
41334;BME280;27078;46.428;6.256;2023-05-21T08:47:35;96073.72;;;17.71;100.00
41334;BME280;27078;46.428;6.256;2023-05-21T08:50:04;96074.19;;;17.75;100.00
41334;BME280;27078;46.428;6.256;2023-05-21T08:52:30;96072.72;;;17.72;100.00
41334;BME280;27078;46.428;6.256;2023-05-21T08:54:56;96082.44;;;17.80;100.00
41334;BME280;27078;46.428;6.256;2023-05-21T08:57:22;96088.16;;;17.92;100.00
41334;BME280;27078;46.428;6.256;2023-05-21T08:59:49;96085.81;;;17.67;100.00
41334;BME280;27078;46.428;6.256;2023-05-21T09:02:15;96080.78;;;17.57;100.00
41334;BME280;27078;46.428;6.256;2023-05-21T09:04:43;96088.69;;;17.65;100.00
41334;BME280;27078;46.428;6.256;2023-05-21T09:07:13;96085.75;;;17.82;100.00
41334;BME280;27078;46.428;6.256;2023-05-21T09:09:49;96089.78;;;17.93;100.00
41334;BME280;27078;46.428;6.256;2023-05-21T09:12:18;96095.50;;;18.11;100.00
41334;BME280;27078;46.428;6.256;2023-05-21T09:14:46;96094.16;;;18.22;100.00
41334;BME280;27078;46.428;6.256;2023-05-21T09:17:13;96098.06;;;18.47;100.00
41334;BME280;27078;46.428;6.256;2023-05-21T09:20:11;96086.31;;;18.70;100.00
41334;BME280;27078;46.428;6.256;2023-05-21T09:22:49;96085.13;;;19.07;100.00
41334;BME280;27078;46.428;6.256;2023-05-21T09:25:24;96079.50;;;19.37;100.00
41334;BME280;27078;46.428;6.256;2023-05-21T09:27:56;96075.63;;;19.53;100.00
41334;BME280;27078;46.428;6.256;2023-05-21T09:30:22;96081.28;;;19.78;100.00
41334;BME280;27078;46.428;6.256;2023-05-21T09:32:57;96081.34;;;20.11;100.00
41334;BME280;27078;46.428;6.256;2023-05-21T09:35:23;96068.34;;;20.75;100.00
41334;BME280;27078;46.428;6.256;2023-05-21T09:37:51;96069.88;;;21.16;100.00
41334;BME280;27078;46.428;6.256;2023-05-21T09:40:19;96068.59;;;21.32;100.00
41334;BME280;27078;46.428;6.256;2023-05-21T09:42:52;96064.47;;;21.36;100.00
41334;BME280;27078;46.428;6.256;2023-05-21T09:45:23;96070.28;;;21.20;100.00
41334;BME280;27078;46.428;6.256;2023-05-21T09:47:49;96067.69;;;20.93;100.00
41334;BME280;27078;46.428;6.256;2023-05-21T09:50:22;96074.53;;;20.76;100.00
41334;BME280;27078;46.428;6.256;2023-05-21T09:52:49;96069.78;;;20.78;100.00
41334;BME280;27078;46.428;6.256;2023-05-21T09:55:21;96072.22;;;20.92;100.00
41334;BME280;27078;46.428;6.256;2023-05-21T09:57:48;96078.00;;;21.03;100.00
41334;BME280;27078;46.428;6.256;2023-05-21T10:00:17;96077.19;;;20.96;100.00
41334;BME280;27078;46.428;6.256;2023-05-21T10:02:44;96080.91;;;20.94;100.00
41334;BME280;27078;46.428;6.256;2023-05-21T10:05:12;96083.84;;;20.73;100.00
41334;BME280;27078;46.428;6.256;2023-05-21T10:07:41;96079.22;;;21.07;100.00
41334;BME280;27078;46.428;6.256;2023-05-21T10:10:11;96089.53;;;21.10;100.00
41334;BME280;27078;46.428;6.256;2023-05-21T10:12:40;96095.88;;;21.22;100.00
41334;BME280;27078;46.428;6.256;2023-05-21T10:15:08;96101.41;;;21.41;100.00
41334;BME280;27078;46.428;6.256;2023-05-21T10:17:33;96088.63;;;21.43;100.00
41334;BME280;27078;46.428;6.256;2023-05-21T10:20:00;96092.22;;;21.68;100.00
41334;BME280;27078;46.428;6.256;2023-05-21T10:22:26;96091.47;;;21.93;100.00
41334;BME280;27078;46.428;6.256;2023-05-21T10:24:53;96089.56;;;22.00;100.00
41334;BME280;27078;46.428;6.256;2023-05-21T10:27:19;96082.63;;;21.86;100.00
41334;BME280;27078;46.428;6.256;2023-05-21T10:29:46;96080.78;;;21.80;100.00
41334;BME280;27078;46.428;6.256;2023-05-21T10:32:14;96083.97;;;22.02;100.00
41334;BME280;27078;46.428;6.256;2023-05-21T10:34:42;96072.91;;;22.16;100.00
41334;BME280;27078;46.428;6.256;2023-05-21T10:37:07;96076.72;;;22.02;100.00
41334;BME280;27078;46.428;6.256;2023-05-21T10:39:34;96079.50;;;21.89;100.00
41334;BME280;27078;46.428;6.256;2023-05-21T10:48:48;96070.13;;;21.66;100.00
41334;BME280;27078;46.428;6.256;2023-05-21T10:51:22;96066.47;;;21.54;100.00
41334;BME280;27078;46.428;6.256;2023-05-21T10:59:39;96061.00;;;22.06;100.00
41334;BME280;27078;46.428;6.256;2023-05-21T11:02:06;96058.66;;;22.41;100.00
41334;BME280;27078;46.428;6.256;2023-05-21T11:04:32;96061.41;;;22.60;100.00
41334;BME280;27078;46.428;6.256;2023-05-21T11:06:59;96050.88;;;22.76;100.00
41334;BME280;27078;46.428;6.256;2023-05-21T11:09:25;96057.59;;;23.11;100.00
41334;BME280;27078;46.428;6.256;2023-05-21T11:11:52;96057.59;;;23.29;100.00
41334;BME280;27078;46.428;6.256;2023-05-21T11:14:39;96051.72;;;23.51;100.00
41334;BME280;27078;46.428;6.256;2023-05-21T11:19:39;96053.97;;;23.54;100.00
41334;BME280;27078;46.428;6.256;2023-05-21T11:22:06;96052.19;;;23.48;100.00
41334;BME280;27078;46.428;6.256;2023-05-21T11:24:36;96044.88;;;23.67;100.00
41334;BME280;27078;46.428;6.256;2023-05-21T11:27:03;96044.03;;;23.85;100.00
41334;BME280;27078;46.428;6.256;2023-05-21T11:29:43;96049.91;;;23.93;100.00
41334;BME280;27078;46.428;6.256;2023-05-21T11:32:10;96047.91;;;23.89;100.00
41334;BME280;27078;46.428;6.256;2023-05-21T11:39:40;96035.28;;;24.01;100.00
41334;BME280;27078;46.428;6.256;2023-05-21T11:42:06;96036.41;;;23.82;100.00
41334;BME280;27078;46.428;6.256;2023-05-21T11:44:44;96030.97;;;24.12;100.00
41334;BME280;27078;46.428;6.256;2023-05-21T11:47:14;96032.66;;;24.36;100.00
41334;BME280;27078;46.428;6.256;2023-05-21T11:49:41;96031.69;;;24.19;100.00
41334;BME280;27078;46.428;6.256;2023-05-21T11:52:08;96028.97;;;24.07;100.00
41334;BME280;27078;46.428;6.256;2023-05-21T11:54:41;96028.25;;;24.00;100.00
41334;BME280;27078;46.428;6.256;2023-05-21T11:57:08;96030.13;;;23.88;100.00
41334;BME280;27078;46.428;6.256;2023-05-21T11:59:34;96029.84;;;23.89;100.00
41334;BME280;27078;46.428;6.256;2023-05-21T12:02:01;96029.31;;;23.99;100.00
41334;BME280;27078;46.428;6.256;2023-05-21T12:04:30;96031.53;;;24.02;100.00
41334;BME280;27078;46.428;6.256;2023-05-21T12:06:56;96028.81;;;23.90;100.00
41334;BME280;27078;46.428;6.256;2023-05-21T12:09:24;96032.53;;;24.20;100.00
41334;BME280;27078;46.428;6.256;2023-05-21T12:11:50;96028.31;;;24.24;100.00
41334;BME280;27078;46.428;6.256;2023-05-21T12:14:20;96031.13;;;24.29;100.00
41334;BME280;27078;46.428;6.256;2023-05-21T12:16:45;96031.72;;;24.43;100.00
41334;BME280;27078;46.428;6.256;2023-05-21T12:19:10;96029.25;;;24.29;100.00
41334;BME280;27078;46.428;6.256;2023-05-21T12:21:36;96033.72;;;24.47;100.00
41334;BME280;27078;46.428;6.256;2023-05-21T12:24:02;96032.56;;;24.43;100.00
41334;BME280;27078;46.428;6.256;2023-05-21T12:26:28;96030.06;;;24.42;100.00
41334;BME280;27078;46.428;6.256;2023-05-21T12:28:57;96034.34;;;24.73;100.00
41334;BME280;27078;46.428;6.256;2023-05-21T12:31:22;96026.50;;;24.60;100.00
41334;BME280;27078;46.428;6.256;2023-05-21T12:33:49;96034.56;;;24.71;100.00
41334;BME280;27078;46.428;6.256;2023-05-21T12:36:29;96034.69;;;24.88;100.00
41334;BME280;27078;46.428;6.256;2023-05-21T12:38:58;96027.16;;;24.90;100.00
41334;BME280;27078;46.428;6.256;2023-05-21T12:41:23;96027.84;;;25.21;100.00
41334;BME280;27078;46.428;6.256;2023-05-21T12:43:49;96025.13;;;25.09;98.42
41334;BME280;27078;46.428;6.256;2023-05-21T12:46:15;96024.69;;;25.01;100.00
41334;BME280;27078;46.428;6.256;2023-05-21T12:48:52;96023.16;;;25.05;95.82
41334;BME280;27078;46.428;6.256;2023-05-21T12:51:18;96024.75;;;25.29;100.00
41334;BME280;27078;46.428;6.256;2023-05-21T12:53:43;96022.31;;;25.28;100.00
41334;BME280;27078;46.428;6.256;2023-05-21T12:56:14;96018.28;;;25.18;88.91
41334;BME280;27078;46.428;6.256;2023-05-21T12:58:40;96019.59;;;25.16;87.92
41334;BME280;27078;46.428;6.256;2023-05-21T13:01:10;96014.06;;;25.34;93.53
41334;BME280;27078;46.428;6.256;2023-05-21T13:03:40;96014.34;;;25.50;86.23
41334;BME280;27078;46.428;6.256;2023-05-21T13:06:07;96011.41;;;25.51;96.76
41334;BME280;27078;46.428;6.256;2023-05-21T13:08:33;96020.00;;;25.77;99.57